Time;durP1;ratioP1;P1;durP2;ratioP2;P2;SDS_P1;SDS_P2;PMS_P1;PMS_P2;Temp;Humidity;BMP_temperature;BMP_pressure;BME280_temperature;BME280_humidity;BME280_pressure;Samples;Min_cycle;Max_cycle;Signal;HPM_P1;HPM_P2
2023/05/09 00:01:11;;;;;;;15.82;12.15;;;;;;;12.49;100.00;92848.25;5033982;28;20028;-79
2023/05/09 00:03:37;;;;;;;15.63;11.63;;;;;;;12.43;100.00;92852.06;5054768;28;20037;-80
2023/05/09 00:06:04;;;;;;;13.05;10.98;;;;;;;12.42;100.00;92855.72;5031620;28;20036;-79
2023/05/09 00:08:30;;;;;;;13.10;10.90;;;;;;;12.29;100.00;92844.91;5051984;28;20043;-80
2023/05/09 00:10:55;;;;;;;14.15;11.40;;;;;;;12.26;100.00;92840.22;5050443;28;20037;-80
2023/05/09 00:13:22;;;;;;;14.32;11.68;;;;;;;12.21;100.00;92836.91;5047503;28;20075;-80
2023/05/09 00:15:48;;;;;;;13.25;11.02;;;;;;;12.18;100.00;92842.72;5050794;28;20025;-79
2023/05/09 00:18:14;;;;;;;13.93;11.05;;;;;;;12.12;100.00;92834.16;5049637;28;20037;-79
2023/05/09 00:20:43;;;;;;;13.57;10.95;;;;;;;12.12;100.00;92839.41;5050319;28;20112;-79
2023/05/09 00:23:09;;;;;;;16.63;12.13;;;;;;;12.10;100.00;92836.28;5034285;28;20056;-80
2023/05/09 00:25:34;;;;;;;14.15;11.35;;;;;;;12.10;100.00;92836.28;5030466;28;20048;-79
2023/05/09 00:28:00;;;;;;;12.95;10.38;;;;;;;12.08;100.00;92831.31;5046325;28;20033;-80
2023/05/09 00:30:26;;;;;;;13.25;10.00;;;;;;;12.08;100.00;92833.16;5045112;28;20052;-80
2023/05/09 00:32:51;;;;;;;12.40;9.95;;;;;;;12.07;100.00;92831.63;5044980;28;20044;-79
2023/05/09 00:35:17;;;;;;;12.32;9.80;;;;;;;12.07;100.00;92831.63;5045905;28;20029;-80
2023/05/09 00:37:42;;;;;;;13.20;9.93;;;;;;;12.07;100.00;92821.91;5028188;28;20040;-79
2023/05/09 00:40:08;;;;;;;12.90;10.40;;;;;;;12.05;100.00;92820.63;5028721;28;20052;-80
2023/05/09 00:42:35;;;;;;;12.60;10.05;;;;;;;12.05;100.00;92824.03;5047574;28;20576;-80
2023/05/09 00:45:01;;;;;;;13.85;10.13;;;;;;;12.05;100.00;92820.63;5045068;28;20029;-80
2023/05/09 00:47:28;;;;;;;13.07;10.15;;;;;;;12.05;100.00;92823.25;5042783;28;20080;-78
2023/05/09 00:49:58;;;;;;;13.48;10.90;;;;;;;12.02;100.00;92811.50;5045388;28;20525;-80
2023/05/09 00:52:25;;;;;;;14.40;10.98;;;;;;;12.06;100.00;92820.31;5045682;28;20506;-81
2023/05/09 00:54:52;;;;;;;12.73;11.00;;;;;;;12.02;100.00;92815.94;5013887;28;20487;-81
2023/05/09 00:57:18;;;;;;;12.70;10.40;;;;;;;12.05;100.00;92818.00;5044930;28;20040;-79
2023/05/09 00:59:43;;;;;;;11.30;9.75;;;;;;;12.05;100.00;92818.78;5032530;28;20029;-80
2023/05/09 01:02:09;;;;;;;10.57;9.40;;;;;;;12.03;100.00;92822.75;5046609;28;20037;-78
2023/05/09 01:04:36;;;;;;;14.50;10.10;;;;;;;12.02;100.00;92826.44;5045418;28;20074;-78
2023/05/09 01:07:05;;;;;;;13.30;9.88;;;;;;;11.99;100.00;92824.41;5041632;28;20135;-81
2023/05/09 01:09:56;;;;;;;11.95;8.90;;;;;;;11.97;100.00;92816.81;5026040;28;20509;-81
2023/05/09 01:12:34;;;;;;;12.02;9.40;;;;;;;11.95;100.00;92811.06;5044677;28;20041;-81
2023/05/09 01:15:22;;;;;;;12.00;9.02;;;;;;;11.95;100.00;92810.28;5044544;28;20041;-81
2023/05/09 01:18:07;;;;;;;13.68;9.20;;;;;;;11.93;100.00;92810.56;5043678;28;20144;-79
2023/05/09 01:20:37;;;;;;;10.88;9.02;;;;;;;11.92;100.00;92806.41;5030382;28;20108;-78
2023/05/09 01:23:43;;;;;;;13.05;9.70;;;;;;;11.90;100.00;92805.13;5045269;28;20487;-79
2023/05/09 01:26:35;;;;;;;16.35;9.75;;;;;;;11.89;100.00;92804.34;5027000;28;20414;-81
2023/05/09 01:29:29;;;;;;;12.55;10.45;;;;;;;11.87;100.00;92806.44;5044175;28;20449;-80
2023/05/09 01:31:57;;;;;;;12.55;9.85;;;;;;;11.87;100.00;92807.25;5044973;28;20021;-82
2023/05/09 01:34:25;;;;;;;12.48;9.25;;;;;;;11.91;100.00;92804.03;5044662;28;20586;-80
2023/05/09 01:36:57;;;;;;;12.93;10.50;;;;;;;11.90;100.00;92799.88;5045409;28;20788;-81
2023/05/09 01:39:25;;;;;;;12.05;10.35;;;;;;;11.90;100.00;92799.88;5045706;28;20054;-80
2023/05/09 01:41:54;;;;;;;16.63;11.45;;;;;;;11.93;100.00;92788.81;5026148;28;20033;-81
2023/05/09 01:44:22;;;;;;;15.43;10.82;;;;;;;11.90;100.00;92790.16;5043324;28;20076;-78
2023/05/09 01:46:49;;;;;;;15.07;11.63;;;;;;;11.88;100.00;92784.41;5027182;28;20364;-80
2023/05/09 01:49:17;;;;;;;13.25;10.93;;;;;;;11.85;100.00;92784.97;5043386;28;20036;-81
2023/05/09 01:51:44;;;;;;;14.82;10.90;;;;;;;11.82;100.00;92785.53;5042969;28;20112;-79
2023/05/09 01:54:11;;;;;;;13.77;11.45;;;;;;;11.85;100.00;92787.59;5042368;28;20234;-80
2023/05/09 01:56:40;;;;;;;14.30;11.32;;;;;;;11.79;100.00;92783.47;5044180;28;20037;-81
2023/05/09 01:59:06;;;;;;;16.77;12.05;;;;;;;11.83;100.00;92798.34;5028777;28;20100;-81
2023/05/09 02:01:34;;;;;;;14.75;12.45;;;;;;;11.81;100.00;92784.75;5029239;28;20058;-80
2023/05/09 02:04:01;;;;;;;16.05;12.20;;;;;;;11.84;100.00;92797.31;5028893;28;20090;-80
2023/05/09 02:06:28;;;;;;;16.17;12.38;;;;;;;11.85;100.00;92793.59;5025418;28;20041;-80
2023/05/09 02:08:57;;;;;;;14.52;11.60;;;;;;;11.81;100.00;92794.47;5027138;28;20033;-81
2023/05/09 02:11:24;;;;;;;15.02;12.27;;;;;;;11.86;100.00;92804.88;5043588;28;20102;-79
2023/05/09 02:13:50;;;;;;;14.52;11.63;;;;;;;11.85;100.00;92804.09;5009579;28;20040;-78
2023/05/09 02:16:16;;;;;;;14.20;11.82;;;;;;;11.82;100.00;92804.69;5041912;28;20112;-81
2023/05/09 02:18:41;;;;;;;17.98;12.18;;;;;;;11.81;100.00;92799.72;5027555;28;20033;-81
2023/05/09 02:21:07;;;;;;;16.73;12.18;;;;;;;11.82;100.00;92798.63;5024725;28;20423;-80
2023/05/09 02:23:33;;;;;;;16.27;12.70;;;;;;;11.82;100.00;92802.06;5043777;28;20139;-81
2023/05/09 02:26:00;;;;;;;17.90;12.27;;;;;;;11.83;100.00;92800.97;5027090;28;20620;-80
2023/05/09 02:28:27;;;;;;;15.50;11.85;;;;;;;11.83;100.00;92797.59;5026739;28;20045;-79
2023/05/09 02:30:55;;;;;;;17.77;11.93;;;;;;;11.84;100.00;92791.25;5026102;28;20131;-81
2023/05/09 02:33:22;;;;;;;15.27;11.48;;;;;;;11.86;100.00;92800.41;5027274;28;20083;-78
2023/05/09 02:35:49;;;;;;;15.60;11.15;;;;;;;11.85;100.00;92798.84;4993294;28;20139;-80
2023/05/09 02:38:15;;;;;;;17.00;10.52;;;;;;;11.78;100.00;92784.56;5047419;28;20065;-79
2023/05/09 02:40:43;;;;;;;14.43;10.20;;;;;;;11.81;100.00;92803.09;5045241;28;20438;-81
2023/05/09 02:43:09;;;;;;;12.15;9.13;;;;;;;11.80;100.00;92798.94;5045880;28;20051;-79
2023/05/09 02:45:35;;;;;;;13.48;10.15;;;;;;;11.78;100.00;92806.31;5010813;28;20422;-80
2023/05/09 02:48:01;;;;;;;14.65;9.93;;;;;;;11.76;100.00;92797.19;5027881;28;22104;-78
2023/05/09 02:50:27;;;;;;;13.68;9.23;;;;;;;11.75;100.00;92804.25;5024827;28;20036;-80
2023/05/09 02:52:53;;;;;;;10.85;8.80;;;;;;;11.76;100.00;92805.03;5026378;28;20076;-79
2023/05/09 02:55:19;;;;;;;12.40;9.32;;;;;;;11.74;100.00;92797.44;5026321;28;20176;-78
2023/05/09 02:57:44;;;;;;;12.80;8.55;;;;;;;11.72;100.00;92796.94;5043799;28;20037;-81
2023/05/09 03:00:11;;;;;;;11.55;9.00;;;;;;;11.66;100.00;92780.53;5030965;28;20041;-80
2023/05/09 03:02:37;;;;;;;13.23;9.13;;;;;;;11.74;100.00;92786.19;5043164;28;20041;-81
2023/05/09 03:05:06;;;;;;;11.00;8.73;;;;;;;11.77;100.00;92786.38;5027350;28;20037;-80
2023/05/09 03:07:33;;;;;;;11.40;9.38;;;;;;;11.78;100.00;92789.81;5042357;28;20028;-79
2023/05/09 03:09:59;;;;;;;11.65;9.18;;;;;;;11.79;100.00;92788.72;5043046;28;20043;-79
2023/05/09 03:12:25;;;;;;;13.02;9.07;;;;;;;11.79;100.00;92788.72;5025951;28;20037;-79
2023/05/09 03:14:53;;;;;;;14.82;9.45;;;;;;;11.80;100.00;92785.06;5027502;28;20033;-78
2023/05/09 03:17:20;;;;;;;11.48;8.95;;;;;;;11.79;100.00;92778.22;5041871;28;20044;-80
2023/05/09 03:19:47;;;;;;;13.75;9.90;;;;;;;11.78;100.00;92771.44;5010501;28;20036;-80
2023/05/09 03:22:13;;;;;;;12.57;9.88;;;;;;;11.80;100.00;92772.72;5028079;28;20132;-80
2023/05/09 03:24:45;;;;;;;19.40;10.07;;;;;;;11.79;100.00;92768.50;5022211;28;20033;-81
2023/05/09 03:27:11;;;;;;;13.85;10.18;;;;;;;11.76;100.00;92773.56;5054211;28;20186;-80
2023/05/09 03:29:37;;;;;;;13.00;10.27;;;;;;;11.72;100.00;92762.09;5053946;28;20040;-80
2023/05/09 03:32:04;;;;;;;14.27;10.10;;;;;;;11.72;100.00;92760.25;5036714;28;20101;-79
2023/05/09 03:34:29;;;;;;;12.95;9.77;;;;;;;11.71;100.00;92758.69;5040137;28;20048;-80
2023/05/09 03:36:56;;;;;;;13.52;10.32;;;;;;;11.69;100.00;92762.66;5040054;28;20036;-80
2023/05/09 03:39:22;;;;;;;14.68;9.98;;;;;;;11.65;100.00;92770.31;5051308;28;20111;-79
2023/05/09 03:41:52;;;;;;;15.60;10.18;;;;;;;11.66;100.00;92774.47;5016435;28;20033;-80
2023/05/09 03:44:18;;;;;;;15.73;10.95;;;;;;;11.67;100.00;92776.81;5013288;28;20091;-81
2023/05/09 03:46:44;;;;;;;15.85;10.38;;;;;;;11.67;100.00;92773.44;5048198;28;20112;-78
2023/05/09 03:49:11;;;;;;;13.80;10.98;;;;;;;11.61;100.00;92761.47;5029437;28;20041;-78
2023/05/09 03:51:37;;;;;;;12.90;10.50;;;;;;;11.68;100.00;92772.34;5045837;28;20037;-81
2023/05/09 03:54:07;;;;;;;16.40;10.73;;;;;;;11.65;100.00;92767.69;5031254;28;20145;-80
2023/05/09 03:56:33;;;;;;;16.95;10.63;;;;;;;11.65;100.00;92772.94;5031770;28;20033;-80
2023/05/09 03:58:59;;;;;;;14.55;11.25;;;;;;;11.62;100.00;92766.44;5030573;28;20043;-79
2023/05/09 04:01:26;;;;;;;13.88;10.80;;;;;;;11.63;100.00;92777.69;5050449;28;20047;-79
2023/05/09 04:03:52;;;;;;;14.73;11.73;;;;;;;11.63;100.00;92772.44;5031366;28;20059;-78
2023/05/09 04:06:19;;;;;;;16.30;11.88;;;;;;;11.65;100.00;92778.94;5048640;28;20040;-79
2023/05/09 04:08:45;;;;;;;20.13;12.23;;;;;;;11.66;100.00;92774.47;5047109;28;20035;-80
2023/05/09 04:11:11;;;;;;;16.45;11.57;;;;;;;11.65;100.00;92773.72;5027269;28;20529;-80
2023/05/09 04:13:39;;;;;;;16.08;11.63;;;;;;;11.63;100.00;92775.06;5030350;28;20037;-78
2023/05/09 04:16:17;;;;;;;14.98;11.95;;;;;;;11.67;100.00;92779.44;5015272;28;20509;-80
2023/05/09 04:18:43;;;;;;;16.08;11.90;;;;;;;11.68;100.00;92772.34;5044974;28;20036;-79
2023/05/09 04:21:09;;;;;;;14.82;11.60;;;;;;;11.71;100.00;92781.50;5046358;28;20056;-80
2023/05/09 04:23:34;;;;;;;17.77;11.73;;;;;;;11.72;100.00;92783.06;5050660;28;20140;-79
2023/05/09 04:26:01;;;;;;;16.08;12.32;;;;;;;11.73;100.00;92772.31;5047803;28;20072;-80
2023/05/09 04:28:27;;;;;;;14.93;11.90;;;;;;;11.76;100.00;92776.19;5031267;28;20048;-79
2023/05/09 04:30:55;;;;;;;16.42;12.55;;;;;;;11.75;100.00;92778.00;5014469;28;20028;-80
2023/05/09 04:33:22;;;;;;;18.45;12.10;;;;;;;11.77;100.00;92778.50;5032258;28;20038;-79
2023/05/09 04:35:49;;;;;;;16.45;12.50;;;;;;;11.81;100.00;92771.63;5034500;28;20065;-80
2023/05/09 04:38:15;;;;;;;15.40;12.25;;;;;;;11.81;100.00;92776.88;5029096;28;20678;-78
2023/05/09 04:40:41;;;;;;;17.35;13.77;;;;;;;11.82;100.00;92773.22;5031799;28;20052;-81
2023/05/09 04:43:07;;;;;;;16.95;12.85;;;;;;;11.87;100.00;92769.72;5026491;28;20055;-80
2023/05/09 04:45:32;;;;;;;16.90;12.95;;;;;;;11.85;100.00;92767.38;5028751;28;20068;-78
2023/05/09 04:47:59;;;;;;;18.30;12.70;;;;;;;11.85;100.00;92767.38;5013453;28;20045;-80
2023/05/09 04:50:25;;;;;;;17.88;13.13;;;;;;;11.83;100.00;92761.63;5032185;28;20368;-78
2023/05/09 04:52:51;;;;;;;18.83;13.05;;;;;;;11.86;100.00;92768.16;5030067;28;20140;-79
2023/05/09 04:55:16;;;;;;;17.73;13.43;;;;;;;11.84;100.00;92770.28;5047360;28;20037;-80
2023/05/09 04:57:45;;;;;;;17.40;13.20;;;;;;;11.84;100.00;92776.31;5027476;28;20055;-79
2023/05/09 05:00:11;;;;;;;18.88;13.88;;;;;;;11.87;100.00;92775.78;5054084;28;20033;-79
2023/05/09 05:02:38;;;;;;;19.98;13.27;;;;;;;11.87;100.00;92770.53;5031338;28;20057;-82
2023/05/09 05:05:04;;;;;;;20.13;13.10;;;;;;;11.85;100.00;92772.63;4998555;28;20166;-81
2023/05/09 05:07:31;;;;;;;16.38;12.55;;;;;;;11.88;100.00;92771.31;5049006;28;20099;-79
2023/05/09 05:09:58;;;;;;;16.10;12.93;;;;;;;11.90;100.00;92774.41;5038970;28;20021;-78
2023/05/09 05:12:24;;;;;;;15.18;11.82;;;;;;;11.86;100.00;92774.16;5053158;28;20102;-79
2023/05/09 05:14:49;;;;;;;16.25;12.85;;;;;;;11.88;100.00;92771.31;5039438;28;20053;-79
2023/05/09 05:17:18;;;;;;;15.93;12.63;;;;;;;11.88;100.00;92766.06;5000313;28;20037;-79
2023/05/09 05:19:45;;;;;;;16.98;12.60;;;;;;;11.93;100.00;92763.34;5023814;28;20025;-79
2023/05/09 05:22:12;;;;;;;17.20;12.82;;;;;;;11.94;100.00;92764.13;5026229;28;20063;-81
2023/05/09 05:24:40;;;;;;;15.93;12.65;;;;;;;11.93;100.00;92773.84;5022399;28;20037;-79
2023/05/09 05:27:06;;;;;;;16.00;12.15;;;;;;;11.95;100.00;92778.81;5050359;28;20048;-76
2023/05/09 05:29:32;;;;;;;18.67;12.93;;;;;;;11.96;100.00;92767.25;5030445;28;20587;-78
2023/05/09 05:31:58;;;;;;;20.55;11.98;;;;;;;11.94;100.00;92764.91;5016499;28;20029;-78
2023/05/09 05:34:23;;;;;;;16.98;11.90;;;;;;;11.92;100.00;92769.66;5033793;28;20486;-79
2023/05/09 05:36:49;;;;;;;15.18;12.05;;;;;;;11.96;100.00;92764.63;5034754;28;20037;-78
2023/05/09 05:39:15;;;;;;;14.90;11.07;;;;;;;11.95;100.00;92760.44;5033647;28;20187;-77
2023/05/09 05:41:41;;;;;;;16.80;11.85;;;;;;;11.93;100.00;92757.31;5035854;28;20056;-79
2023/05/09 05:44:07;;;;;;;14.38;11.40;;;;;;;12.01;100.00;92759.31;5033376;28;20491;-79
2023/05/09 05:46:33;;;;;;;14.93;10.75;;;;;;;11.95;100.00;92761.22;5019210;28;20041;-78
2023/05/09 05:48:59;;;;;;;17.17;11.23;;;;;;;11.97;100.00;92758.31;5034547;28;20029;-79
2023/05/09 05:51:25;;;;;;;15.07;11.10;;;;;;;12.11;100.00;92766.22;5034472;28;20118;-78
2023/05/09 05:53:50;;;;;;;14.07;9.73;;;;;;;12.03;100.00;92770.28;5034872;28;20476;-78
2023/05/09 05:56:17;;;;;;;13.10;10.95;;;;;;;12.06;100.00;92775.72;5035112;28;20033;-80
2023/05/09 05:58:43;;;;;;;14.05;11.25;;;;;;;12.09;100.00;92771.75;5036638;28;20398;-79
2023/05/09 06:01:09;;;;;;;16.38;12.15;;;;;;;12.15;100.00;92778.47;5038162;28;20040;-80
2023/05/09 06:03:34;;;;;;;15.05;10.77;;;;;;;12.16;100.00;92766.94;5021880;28;20032;-80
2023/05/09 06:06:04;;;;;;;15.23;11.15;;;;;;;12.19;100.00;92774.22;5037028;28;20040;-77
2023/05/09 06:08:30;;;;;;;13.57;10.35;;;;;;;12.23;100.00;92772.56;5053374;28;20044;-80
2023/05/09 06:10:57;;;;;;;14.77;10.50;;;;;;;12.26;100.00;92771.22;5036721;28;20487;-80
2023/05/09 06:13:22;;;;;;;13.60;10.77;;;;;;;12.27;100.00;92765.69;5035899;28;20043;-79
2023/05/09 06:15:56;;;;;;;14.82;10.57;;;;;;;12.33;100.00;92762.97;5036409;28;20025;-80
2023/05/09 06:18:22;;;;;;;12.75;9.85;;;;;;;12.41;100.00;92764.94;5052981;28;20119;-80
2023/05/09 06:20:47;;;;;;;13.82;10.38;;;;;;;12.49;100.00;92761.59;5003183;28;20094;-80
2023/05/09 06:23:13;;;;;;;16.38;9.93;;;;;;;12.47;100.00;92764.53;5032629;28;20056;-81
2023/05/09 06:25:39;;;;;;;12.35;10.43;;;;;;;12.48;100.00;92766.09;5033910;28;20125;-80
2023/05/09 06:28:06;;;;;;;14.05;10.30;;;;;;;12.48;100.00;92771.34;5032391;28;20044;-80
2023/05/09 06:30:31;;;;;;;13.10;10.05;;;;;;;12.49;100.00;92766.84;5032587;28;20029;-76
2023/05/09 06:32:57;;;;;;;12.07;10.48;;;;;;;12.46;100.00;92764.81;5031606;28;20036;-77
2023/05/09 06:35:22;;;;;;;13.88;10.63;;;;;;;12.46;100.00;92770.06;5032425;28;20021;-77
2023/05/09 06:37:48;;;;;;;14.20;10.52;;;;;;;12.44;100.00;92764.34;5031802;28;20491;-77
2023/05/09 06:40:14;;;;;;;14.13;10.40;;;;;;;12.41;100.00;92764.94;5032533;28;20163;-79
2023/05/09 06:42:39;;;;;;;16.25;10.55;;;;;;;12.40;100.00;92764.13;5032566;28;20506;-80
2023/05/09 06:45:05;;;;;;;16.15;10.07;;;;;;;12.42;100.00;92769.09;5031701;28;20024;-80
2023/05/09 06:47:31;;;;;;;14.30;10.07;;;;;;;12.42;100.00;92763.84;5024481;28;20073;-80
2023/05/09 06:49:56;;;;;;;14.52;10.00;;;;;;;12.46;100.00;92770.06;5027675;28;20089;-80
2023/05/09 06:52:22;;;;;;;14.18;9.52;;;;;;;12.45;100.00;92765.88;5026763;28;20481;-80
2023/05/09 06:54:47;;;;;;;12.38;9.70;;;;;;;12.42;100.00;92769.09;5032071;28;20151;-81
2023/05/09 06:57:13;;;;;;;14.00;10.18;;;;;;;12.42;100.00;92766.47;5032398;28;20087;-80
2023/05/09 06:59:39;;;;;;;16.02;10.27;;;;;;;12.42;100.00;92764.63;5032623;28;20561;-80
2023/05/09 07:02:04;;;;;;;14.30;10.05;;;;;;;12.37;100.00;92758.69;5031819;28;20045;-80
2023/05/09 07:04:30;;;;;;;13.02;9.55;;;;;;;12.42;100.00;92761.22;5032170;28;20031;-80
2023/05/09 07:06:55;;;;;;;11.02;8.80;;;;;;;12.44;100.00;92767.72;5033769;28;20129;-81
2023/05/09 07:09:22;;;;;;;15.50;9.85;;;;;;;12.43;100.00;92763.56;5036147;28;20029;-81
2023/05/09 07:11:48;;;;;;;15.13;10.50;;;;;;;12.40;100.00;92765.97;5035117;28;20041;-80
2023/05/09 07:14:13;;;;;;;13.25;9.77;;;;;;;12.37;100.00;92754.22;5037957;28;20030;-79
2023/05/09 07:16:39;;;;;;;15.27;10.32;;;;;;;12.35;100.00;92763.44;5003935;28;20495;-81
2023/05/09 07:19:04;;;;;;;15.05;11.38;;;;;;;12.35;100.00;92758.19;5035213;28;20176;-81
2023/05/09 07:21:33;;;;;;;16.92;11.48;;;;;;;12.27;100.00;92757.00;5034297;28;20406;-80
2023/05/09 07:23:58;;;;;;;14.60;10.60;;;;;;;12.31;100.00;92747.50;5026106;28;20080;-79
2023/05/09 07:26:24;;;;;;;15.27;10.45;;;;;;;12.37;100.00;92753.44;5049402;28;20041;-79
2023/05/09 07:28:49;;;;;;;15.60;11.73;;;;;;;12.37;100.00;92751.59;5017168;28;20029;-79
2023/05/09 07:31:15;;;;;;;14.38;10.35;;;;;;;12.35;100.00;92753.72;5035339;28;20032;-81
2023/05/09 07:33:41;;;;;;;14.38;11.27;;;;;;;12.37;100.00;92751.59;5032700;28;20037;-81
2023/05/09 07:36:06;;;;;;;13.85;10.18;;;;;;;12.52;100.00;92747.91;5032193;28;20157;-80
2023/05/09 07:38:32;;;;;;;15.73;10.88;;;;;;;12.37;100.00;92750.81;5031611;28;20048;-79
2023/05/09 07:40:57;;;;;;;16.38;11.30;;;;;;;12.34;100.00;92743.50;5031315;28;20030;-80
2023/05/09 07:43:23;;;;;;;12.77;10.27;;;;;;;12.39;100.00;92746.06;5018988;28;20391;-82
2023/05/09 07:45:49;;;;;;;16.65;10.80;;;;;;;12.39;100.00;92746.81;5036755;28;20107;-82
2023/05/09 07:48:14;;;;;;;15.73;10.95;;;;;;;12.35;100.00;92742.44;5036728;28;20087;-81
2023/05/09 07:50:40;;;;;;;16.02;11.35;;;;;;;12.28;100.00;92735.72;5036131;28;20049;-81
2023/05/09 07:53:05;;;;;;;15.82;11.13;;;;;;;12.24;100.00;92737.38;5016669;28;20029;-81
2023/05/09 07:55:31;;;;;;;17.80;12.23;;;;;;;12.28;100.00;92738.34;5030570;28;20046;-82
2023/05/09 07:57:56;;;;;;;18.17;12.25;;;;;;;12.09;100.00;92735.00;5031641;28;20387;-80
2023/05/09 08:00:22;;;;;;;18.15;12.32;;;;;;;12.21;100.00;92737.97;5034789;28;20395;-80
2023/05/09 08:02:52;;;;;;;14.23;10.45;;;;;;;12.12;100.00;92734.44;5027014;28;20080;-80
2023/05/09 08:05:18;;;;;;;16.65;11.90;;;;;;;12.05;100.00;92732.19;5036528;28;20041;-81
2023/05/09 08:07:44;;;;;;;18.63;11.30;;;;;;;12.13;100.00;92727.34;5030587;28;20609;-80
2023/05/09 08:10:10;;;;;;;14.65;10.63;;;;;;;12.19;100.00;92734.84;5035023;28;20034;-80
2023/05/09 08:12:35;;;;;;;17.88;11.30;;;;;;;12.05;100.00;92739.28;5039501;28;20032;-81
2023/05/09 08:15:01;;;;;;;16.80;11.00;;;;;;;11.97;100.00;92732.06;5036083;28;20439;-80
2023/05/09 08:17:27;;;;;;;16.23;11.02;;;;;;;11.91;100.00;92738.47;5034574;28;20506;-81
2023/05/09 08:19:53;;;;;;;13.90;10.50;;;;;;;11.86;100.00;92732.19;5034999;28;20034;-79
2023/05/09 08:22:19;;;;;;;14.20;10.18;;;;;;;11.99;100.00;92733.34;5032357;28;20037;-80
2023/05/09 08:24:45;;;;;;;17.75;11.15;;;;;;;12.04;100.00;92732.47;5033558;28;20122;-81
2023/05/09 08:27:12;;;;;;;18.05;11.27;;;;;;;12.04;100.00;92727.22;5028831;28;20063;-80
2023/05/09 08:29:39;;;;;;;16.23;12.05;;;;;;;11.95;100.00;92723.72;5030680;28;20046;-81
2023/05/09 08:32:05;;;;;;;17.58;11.13;;;;;;;11.91;100.00;92726.16;5035091;28;20124;-81
2023/05/09 08:34:33;;;;;;;17.60;11.38;;;;;;;11.85;100.00;92717.53;5034876;28;20026;-80
2023/05/09 08:37:03;;;;;;;16.70;10.98;;;;;;;11.98;100.00;92717.88;5035087;28;20025;-81
2023/05/09 08:39:29;;;;;;;17.33;10.40;;;;;;;12.03;100.00;92718.59;5049543;28;20033;-81
2023/05/09 08:42:00;;;;;;;18.58;11.43;;;;;;;12.06;100.00;92711.97;5033905;28;20029;-80
2023/05/09 08:44:29;;;;;;;14.40;11.50;;;;;;;12.01;100.00;92717.31;5033651;28;20033;-80
2023/05/09 08:47:06;;;;;;;18.45;10.65;;;;;;;12.02;100.00;92718.88;5034730;28;20037;-79
2023/05/09 08:49:32;;;;;;;16.27;10.93;;;;;;;11.90;100.00;92718.56;5033648;28;20033;-81
2023/05/09 08:51:58;;;;;;;15.80;11.73;;;;;;;11.82;100.00;92715.50;5032868;28;20051;-81
2023/05/09 08:54:24;;;;;;;14.48;10.82;;;;;;;11.84;100.00;92705.50;5026005;28;20123;-80
2023/05/09 08:56:50;;;;;;;15.23;9.68;;;;;;;11.90;100.00;92716.72;5029779;28;20071;-81
2023/05/09 08:59:17;;;;;;;17.13;10.70;;;;;;;11.90;100.00;92714.09;5033892;28;20049;-80
2023/05/09 09:01:43;;;;;;;15.05;10.45;;;;;;;11.98;100.00;92717.88;5024983;28;20395;-80
2023/05/09 09:04:10;;;;;;;14.48;10.20;;;;;;;11.92;100.00;92713.81;5033571;28;20415;-80
2023/05/09 09:06:37;;;;;;;16.15;11.50;;;;;;;11.87;100.00;92714.66;5034971;28;20041;-81
2023/05/09 09:09:06;;;;;;;14.90;10.90;;;;;;;11.82;100.00;92723.38;5035308;28;20033;-81
2023/05/09 09:11:32;;;;;;;16.50;11.32;;;;;;;11.81;100.00;92716.56;5026649;28;20100;-81
2023/05/09 09:14:12;;;;;;;15.30;10.45;;;;;;;11.91;100.00;92717.47;5033653;28;20041;-81
2023/05/09 09:16:40;;;;;;;14.10;10.38;;;;;;;11.92;100.00;92714.56;5035418;28;20522;-81
2023/05/09 09:19:11;;;;;;;13.10;9.77;;;;;;;12.07;100.00;92709.06;5040392;28;20056;-81
2023/05/09 09:21:38;;;;;;;18.35;9.68;;;;;;;12.10;100.00;92715.59;5034110;28;20037;-80
2023/05/09 09:24:06;;;;;;;13.23;9.15;;;;;;;12.11;100.00;92714.50;5030665;28;20046;-81
2023/05/09 09:26:32;;;;;;;13.60;9.48;;;;;;;12.16;100.00;92709.19;5034079;28;20037;-81
2023/05/09 09:28:57;;;;;;;13.23;9.20;;;;;;;12.08;100.00;92712.47;5029986;28;20116;-81
2023/05/09 09:31:23;;;;;;;11.43;8.55;;;;;;;12.10;100.00;92710.34;5032160;28;20064;-80
2023/05/09 09:33:49;;;;;;;13.18;9.15;;;;;;;12.14;100.00;92706.06;5028891;28;20116;-81
2023/05/09 09:36:15;;;;;;;11.68;8.25;;;;;;;12.35;100.00;92705.69;5032045;28;20022;-81
2023/05/09 09:38:44;;;;;;;11.32;8.13;;;;;;;12.35;100.00;92705.69;5030130;28;20041;-81
2023/05/09 09:41:11;;;;;;;11.18;7.68;;;;;;;12.52;100.00;92707.72;5032889;28;20458;-80
2023/05/09 09:43:37;;;;;;;12.38;8.77;;;;;;;12.63;100.00;92701.22;5029139;28;20042;-80
2023/05/09 09:46:04;;;;;;;14.23;7.70;;;;;;;12.73;100.00;92697.63;5033764;28;20513;-80
2023/05/09 09:48:35;;;;;;;11.90;7.95;;;;;;;12.84;100.00;92696.34;5043503;28;20128;-81
2023/05/09 09:51:09;;;;;;;9.30;7.43;;;;;;;13.13;100.00;92693.38;5034310;28;20044;-80
2023/05/09 09:53:44;;;;;;;10.00;7.05;;;;;;;13.27;100.00;92688.06;5020059;28;20042;-81
2023/05/09 09:56:10;;;;;;;12.40;7.47;;;;;;;13.37;100.00;92693.09;5031827;28;20038;-81
2023/05/09 09:58:36;;;;;;;11.05;7.47;;;;;;;13.48;100.00;92686.53;5030157;28;20033;-80
2023/05/09 10:01:06;;;;;;;10.50;7.72;;;;;;;13.62;100.00;92683.06;5012875;28;20041;-80
2023/05/09 10:03:39;;;;;;;11.15;7.75;;;;;;;13.58;100.00;92690.81;5028435;28;20577;-80
2023/05/09 10:06:09;;;;;;;10.80;8.15;;;;;;;13.63;100.00;92689.91;5033151;28;20088;-81
2023/05/09 10:08:35;;;;;;;12.70;7.82;;;;;;;13.61;100.00;92690.19;5032868;28;20482;-81
2023/05/09 10:11:00;;;;;;;10.60;7.72;;;;;;;13.63;100.00;92685.41;5034525;28;20029;-81
2023/05/09 10:13:27;;;;;;;14.95;8.75;;;;;;;13.56;100.00;92686.94;5033774;28;20080;-81
2023/05/09 10:15:54;;;;;;;14.70;8.40;;;;;;;13.53;100.00;92677.75;5030677;28;20499;-81
2023/05/09 10:18:25;;;;;;;10.68;8.10;;;;;;;13.45;100.00;92683.75;5033394;28;20029;-81
2023/05/09 10:20:52;;;;;;;11.10;8.17;;;;;;;13.46;100.00;92680.03;5032103;28;20330;-81
2023/05/09 10:23:19;;;;;;;9.95;7.93;;;;;;;13.50;100.00;92676.50;5043662;28;20052;-81
2023/05/09 10:26:15;;;;;;;10.70;7.95;;;;;;;13.57;100.00;92675.31;5050020;28;20037;-79
2023/05/09 10:28:44;;;;;;;12.57;8.65;;;;;;;13.54;100.00;92659.06;5045187;28;20037;-78
2023/05/09 10:31:13;;;;;;;11.63;9.00;;;;;;;13.61;100.00;92673.66;5048934;28;20032;-84
2023/05/09 10:33:49;;;;;;;14.07;9.27;;;;;;;13.30;100.00;92675.13;5017661;28;20098;-80
2023/05/09 10:36:19;;;;;;;13.23;8.55;;;;;;;13.36;100.00;92669.75;5048599;28;20040;-81
2023/05/09 10:38:50;;;;;;;12.65;9.18;;;;;;;13.44;100.00;92669.84;5031919;28;20142;-80
2023/05/09 10:41:17;;;;;;;13.05;8.77;;;;;;;13.57;100.00;92662.16;5052862;28;20033;-81
2023/05/09 10:43:44;;;;;;;13.23;8.55;;;;;;;13.56;100.00;92660.63;5031536;28;20040;-80
2023/05/09 10:46:11;;;;;;;13.90;8.82;;;;;;;13.51;100.00;92662.28;5052688;28;20128;-82
2023/05/09 10:48:38;;;;;;;13.75;8.82;;;;;;;13.53;100.00;92659.34;5051751;28;20035;-82
2023/05/09 10:51:05;;;;;;;12.55;9.07;;;;;;;13.59;100.00;92660.00;5052851;28;20043;-81
2023/05/09 10:53:47;;;;;;;13.00;8.88;;;;;;;13.65;100.00;92656.19;5033535;28;20452;-81
2023/05/09 10:56:30;;;;;;;13.00;8.80;;;;;;;13.90;100.00;92655.56;5030948;28;20469;-80
2023/05/09 10:58:56;;;;;;;14.15;9.48;;;;;;;14.06;100.00;92649.91;5046658;28;20102;-80
2023/05/09 11:01:33;;;;;;;14.32;9.05;;;;;;;14.30;100.00;92645.03;5033976;28;20171;-82
2023/05/09 11:04:01;;;;;;;15.07;9.68;;;;;;;14.34;100.00;92651.25;5053084;28;20040;-81
2023/05/09 11:06:38;;;;;;;16.88;9.98;;;;;;;14.32;100.00;92649.97;5034357;28;20036;-80
2023/05/09 11:09:34;;;;;;;14.43;9.82;;;;;;;14.45;100.00;92649.09;5054704;28;20025;-81
2023/05/09 11:12:05;;;;;;;14.07;10.52;;;;;;;14.18;100.00;92639.56;5034068;28;20394;-82
2023/05/09 11:14:34;;;;;;;16.35;7.88;;;;;;;14.18;100.00;92639.56;5053366;28;20029;-81